CheckWX is a tool to help pilots better visualize weather data.  It is not intended as a substitute for an official pre-flight weather briefing.

18:30:31 UTC

KHDC METAR
Hammond Northshore Regional Airport
Hammond, Louisiana, USA
Current

36 mins ago

KHDC 221755Z AUTO 14011G14KT 10SM SCT016 BKN090 26/21 A3007 RMK AO2
Observed
Feb-22 @ 17:55 UTC
Wind
  • 140° at 11 KTS
  • Gusting to KTS
Visibility
10 SM
Flight Rules
VFR
Cloud Levels
  • Scattered at 1,600' AGL
  • Broken at 9,000' AGL
Temperature
26°C / 79°F
Dewpoint
21°C / 70°F
Humidity
74%
Altimeter
30.07" Hg
Pressure
1018.32 hPa
Previous

56 mins ago

KHDC 221735Z AUTO 14008KT 10SM BKN014 BKN019 BKN090 25/21 A3008 RMK AO2
Observed
Feb-22 @ 17:35 UTC
Wind
  • 140° at 8 KTS
Visibility
10 SM
Flight Rules
MVFR
Cloud Levels
  • Broken at 1,400' AGL
  • Broken at 1,900' AGL
  • Broken at 9,000' AGL
Temperature
25°C / 77°F
Dewpoint
21°C / 70°F
Humidity
79%
Altimeter
30.08" Hg
Pressure
1018.62 hPa
Previous

1 hour ago

KHDC 221715Z AUTO 18008KT 10SM BKN012 BKN031 OVC090 25/21 A3009 RMK AO2
Observed
Feb-22 @ 17:15 UTC
Wind
  • 180° at 8 KTS
Visibility
10 SM
Flight Rules
MVFR
Cloud Levels
  • Broken at 1,200' AGL
  • Broken at 3,100' AGL
  • Overcast at 9,000' AGL
Temperature
25°C / 77°F
Dewpoint
21°C / 70°F
Humidity
79%
Altimeter
30.09" Hg
Pressure
1018.92 hPa